Map

Track Data

SID SEASON NUMBER BASIN SUBBASIN NAME ISO_TIME NATURE LAT LON WMO_WIND WMO_PRES WMO_AGENCY TRACK_TYPE DIST2LAND LANDFALL IFLAG USA_AGENCY USA_ATCF_ID USA_LAT USA_LON USA_RECORD USA_STATUS USA_WIND USA_PRES USA_SSHS USA_R34_NE USA_R34_SE USA_R34_SW USA_R34_NW USA_R50_NE USA_R50_SE USA_R50_SW USA_R50_NW USA_R64_NE USA_R64_SE USA_R64_SW USA_R64_NW USA_POCI USA_ROCI USA_RMW USA_EYE TOKYO_LAT TOKYO_LON TOKYO_GRADE TOKYO_WIND TOKYO_PRES TOKYO_R50_DIR TOKYO_R50_LONG TOKYO_R50_SHORT TOKYO_R30_DIR TOKYO_R30_LONG TOKYO_R30_SHORT TOKYO_LAND CMA_LAT CMA_LON CMA_CAT CMA_WIND CMA_PRES HKO_LAT HKO_LON HKO_CAT HKO_WIND HKO_PRES NEWDELHI_LAT NEWDELHI_LON NEWDELHI_GRADE NEWDELHI_WIND NEWDELHI_PRES NEWDELHI_CI NEWDELHI_DP NEWDELHI_POCI REUNION_LAT REUNION_LON REUNION_TYPE REUNION_WIND REUNION_PRES REUNION_TNUM REUNION_CI REUNION_RMW REUNION_R34_NE REUNION_R34_SE REUNION_R34_SW REUNION_R34_NW REUNION_R50_NE REUNION_R50_SE REUNION_R50_SW REUNION_R50_NW REUNION_R64_NE REUNION_R64_SE REUNION_R64_SW REUNION_R64_NW BOM_LAT BOM_LON BOM_TYPE BOM_WIND BOM_PRES BOM_TNUM BOM_CI BOM_RMW BOM_R34_NE BOM_R34_SE BOM_R34_SW BOM_R34_NW BOM_R50_NE BOM_R50_SE BOM_R50_SW BOM_R50_NW BOM_R64_NE BOM_R64_SE BOM_R64_SW BOM_R64_NW BOM_ROCI BOM_POCI BOM_EYE BOM_POS_METHOD BOM_PRES_METHOD NADI_LAT NADI_LON NADI_CAT NADI_WIND NADI_PRES WELLINGTON_LAT WELLINGTON_LON WELLINGTON_WIND WELLINGTON_PRES DS824_LAT DS824_LON DS824_STAGE DS824_WIND DS824_PRES TD9636_LAT TD9636_LON TD9636_STAGE TD9636_WIND TD9636_PRES TD9635_LAT TD9635_LON TD9635_WIND TD9635_PRES TD9635_ROCI NEUMANN_LAT NEUMANN_LON NEUMANN_CLASS NEUMANN_WIND NEUMANN_PRES MLC_LAT MLC_LON MLC_CLASS MLC_WIND MLC_PRES USA_GUST BOM_GUST BOM_GUST_PER REUNION_GUST REUNION_GUST_PER USA_SEAHGT USA_SEARAD_NE USA_SEARAD_SE USA_SEARAD_SW USA_SEARAD_NW STORM_SPEED STORM_DIR
1936042S12064 1936 6 SI MM NOT_NAMED 1936-02-11 06:00:00 NR -12.3000 64.1000 reunion main 1108 1097 _____O________ -1 -12.3000 64.1000 99 9.90000 5 159
1936042S12064 1936 6 SI MM NOT_NAMED 1936-02-11 09:00:00 NR -12.5366 64.1886 main 1097 1078 _____P________ -1 -12.5366 64.1886 99 5 160
1936042S12064 1936 6 SI MM NOT_NAMED 1936-02-11 12:00:00 NR -12.7815 64.2807 main 1078 1060 _____P________ -1 -12.7815 64.2807 99 5 160
1936042S12064 1936 6 SI MM NOT_NAMED 1936-02-11 15:00:00 NR -13.0433 64.3797 main 1068 1050 _____P________ -1 -13.0433 64.3797 99 6 160
1936042S12064 1936 6 SI MM NOT_NAMED 1936-02-11 18:00:00 NR -13.3303 64.4890 main 1050 1033 _____P________ -1 -13.3303 64.4890 99 7 159
1936042S12064 1936 6 SI MM NOT_NAMED 1936-02-11 21:00:00 NR -13.6509 64.6121 main 1025 1009 _____P________ -1 -13.6509 64.6121 99 7 160
1936042S12064 1936 6 SI MM NOT_NAMED 1936-02-12 00:00:00 NR -14.0138 64.7525 main 1017 994 _____P________ -1 -14.0138 64.7525 99 8 159
1936042S12064 1936 6 SI MM NOT_NAMED 1936-02-12 03:00:00 NR -14.4273 64.9139 main 995 975 _____P________ -1 -14.4273 64.9139 99 10 159
1936042S12064 1936 6 SI MM NOT_NAMED 1936-02-12 06:00:00 NR -14.9000 65.1000 reunion main 976 961 _____O________ -1 -14.9000 65.1000 99 9.90000 11 159
1936042S12064 1936 6 SI MM NOT_NAMED 1936-02-12 09:00:00 NR -15.4362 65.3129 main 961 943 _____P________ -1 -15.4362 65.3129 99 12 159
1936042S12064 1936 6 SI MM NOT_NAMED 1936-02-12 12:00:00 NR -16.0236 65.5486 main 943 935 _____P________ -1 -16.0236 65.5486 99 13 159
1936042S12064 1936 6 SI MM NOT_NAMED 1936-02-12 15:00:00 NR -16.6458 65.8010 main 939 925 _____P________ -1 -16.6458 65.8010 99 14 159
1936042S12064 1936 6 SI MM NOT_NAMED 1936-02-12 18:00:00 NR -17.2862 66.0644 main 935 927 _____P________ -1 -17.2862 66.0644 99 14 158
1936042S12064 1936 6 SI MM NOT_NAMED 1936-02-12 21:00:00 NR -17.9283 66.3324 main 932 929 _____P________ -1 -17.9283 66.3324 99 14 158
1936042S12064 1936 6 SI MM NOT_NAMED 1936-02-13 00:00:00 NR -18.5555 66.5987 main 941 939 _____P________ -1 -18.5555 66.5987 99 13 158
1936042S12064 1936 6 SI MM NOT_NAMED 1936-02-13 03:00:00 NR -19.1515 66.8568 main 960 958 _____P________ -1 -19.1515 66.8568 99 12 158
1936042S12064 1936 6 SI MM NOT_NAMED 1936-02-13 06:00:00 NR -19.7000 67.1000 reunion main 973 972 _____O________ -1 -19.7000 67.1000 99 9.90000 11 157
1936042S12064 1936 6 SI MM NOT_NAMED 1936-02-13 09:00:00 NR -20.1460 67.3012 main 991 990 _____P________ -1 -20.1460 67.3012 99 9 157
1936042S12064 1936 6 SI MM NOT_NAMED 1936-02-13 12:00:00 NR -20.5504 67.4886 main 1010 1010 _____P________ -1 -20.5504 67.4886 99 9 156
1936042S12064 1936 6 SI MM NOT_NAMED 1936-02-13 15:00:00 NR -20.9204 67.6654 main 1032 1032 _____P________ -1 -20.9204 67.6654 99 8 156
1936042S12064 1936 6 SI MM NOT_NAMED 1936-02-13 18:00:00 NR -21.2631 67.8347 main 1045 1045 _____P________ -1 -21.2631 67.8347 99 7 155
1936042S12064 1936 6 SI MM NOT_NAMED 1936-02-13 21:00:00 NR -21.5854 67.9995 main 1068 1068 _____P________ -1 -21.5854 67.9995 99 7 154
1936042S12064 1936 6 SI MM NOT_NAMED 1936-02-14 00:00:00 NR -21.8943 68.1632 main 1093 1093 _____P________ -1 -21.8943 68.1632 99 7 153
1936042S12064 1936 6 SI MM NOT_NAMED 1936-02-14 03:00:00 NR -22.1969 68.3289 main 1108 1108 _____P________ -1 -22.1969 68.3289 99 7 153
1936042S12064 1936 6 SI MM NOT_NAMED 1936-02-14 06:00:00 NR -22.5000 68.5000 reunion main 1134 1134 _____O________ -1 -22.5000 68.5000 99 9.90000 7 154
1936042S12064 1936 6 SI MM NOT_NAMED 1936-02-14 09:00:00 NR -22.7969 68.6508 main 1160 1160 _____P________ -1 -22.7969 68.6508 99 7 155
1936042S12064 1936 6 SI MM NOT_NAMED 1936-02-14 12:00:00 NR -23.0851 68.8005 main 1178 1178 _____P________ -1 -23.0851 68.8005 99 6 154
1936042S12064 1936 6 SI MM NOT_NAMED 1936-02-14 15:00:00 NR -23.3730 68.9564 main 1205 1205 _____P________ -1 -23.3730 68.9564 99 7 153
1936042S12064 1936 6 SI MM NOT_NAMED 1936-02-14 18:00:00 NR -23.6690 69.1261 main 1224 1224 _____P________ -1 -23.6690 69.1261 99 7 152
1936042S12064 1936 6 SI MM NOT_NAMED 1936-02-14 21:00:00 NR -23.9813 69.3174 main 1253 1253 _____P________ -1 -23.9813 69.3174 99 8 150
1936042S12064 1936 6 SI MM NOT_NAMED 1936-02-15 00:00:00 NR -24.3184 69.5380 main 1283 1283 _____P________ -1 -24.3184 69.5380 99 8 148
1936042S12064 1936 6 SI MM NOT_NAMED 1936-02-15 03:00:00 NR -24.6886 69.7962 main 1326 1326 _____P________ -1 -24.6886 69.7962 99 9 147
1936042S12064 1936 6 SI MM NOT_NAMED 1936-02-15 06:00:00 NR -25.1000 70.1000 reunion main 1369 1369 _____O________ -1 -25.1000 70.1000 99 9.90000 12 146
1936042S12064 1936 6 SI MM NOT_NAMED 1936-02-15 09:00:00 NR -25.6460 70.5204 main 1426 1426 _____P________ -1 -25.6460 70.5204 99 14 145
1936042S12064 1936 6 SI MM NOT_NAMED 1936-02-15 12:00:00 NR -26.2405 70.9963 main 1497 1497 _____P________ -1 -26.2405 70.9963 99 15 144
1936042S12064 1936 6 SI MM NOT_NAMED 1936-02-15 15:00:00 NR -26.8614 71.5105 main 1574 1574 _____P________ -1 -26.8614 71.5105 99 16 143
1936042S12064 1936 6 SI MM NOT_NAMED 1936-02-15 18:00:00 NR -27.4868 72.0450 main 1647 1647 _____P________ -1 -27.4868 72.0450 99 16 142
1936042S12064 1936 6 SI MM NOT_NAMED 1936-02-15 21:00:00 NR -28.0947 72.5813 main 1729 1729 _____P________ -1 -28.0947 72.5813 99 15 142
1936042S12064 1936 6 SI MM NOT_NAMED 1936-02-16 00:00:00 NR -28.6636 73.0995 main 1803 1803 _____P________ -1 -28.6636 73.0995 99 14 141
1936042S12064 1936 6 SI MM NOT_NAMED 1936-02-16 03:00:00 NR -29.1723 73.5795 main 1871 1871 _____P________ -1 -29.1723 73.5795 99 12 140
1936042S12064 1936 6 SI MM NOT_NAMED 1936-02-16 06:00:00 NR -29.6000 74.0000 reunion main 1926 1926 _____O________ -1 -29.6000 74.0000 99 9.90000 10 139
1936042S12064 1936 6 SI MM NOT_NAMED 1936-02-16 09:00:00 NR -29.9319 74.3447 main 1968 1968 _____P________ -1 -29.9319 74.3447 99 8 137
1936042S12064 1936 6 SI MM NOT_NAMED 1936-02-16 12:00:00 NR -30.1755 74.6176 main 2009 2009 _____P________ -1 -30.1755 74.6176 99 6 135
1936042S12064 1936 6 SI MM NOT_NAMED 1936-02-16 15:00:00 NR -30.3438 74.8280 main 2031 2031 _____P________ -1 -30.3438 74.8280 99 4 131
1936042S12064 1936 6 SI MM NOT_NAMED 1936-02-16 18:00:00 NR -30.4497 74.9860 main 2053 2053 _____P________ -1 -30.4497 74.9860 99 3 124
1936042S12064 1936 6 SI MM NOT_NAMED 1936-02-16 21:00:00 NR -30.5058 75.1017 main 2067 2067 _____P________ -1 -30.5058 75.1017 99 2 113
1936042S12064 1936 6 SI MM NOT_NAMED 1936-02-17 00:00:00 NR -30.5246 75.1855 main 2076 2076 _____P________ -1 -30.5246 75.1855 99 1 96
1936042S12064 1936 6 SI MM NOT_NAMED 1936-02-17 03:00:00 NR -30.5185 75.2481 main 2076 2076 _____P________ -1 -30.5185 75.2481 99 1 75
1936042S12064 1936 6 SI MM NOT_NAMED 1936-02-17 06:00:00 NR -30.5000 75.3000 reunion main 2084 _____O________ -1 -30.5000 75.3000 99 9.90000 1 62

About IBTrACS Database

This database is a web-friendly format of International Best Track Archive for Climate Stewardship (IBTrACS), a global best track data archive curated by NOAA dating back to 1842.

Updated: 2021-12-06